Forside
METAR-TAF:

METAR-TAF

Lufthavne :

Rush City Regional Airport

Rush City, Minnesota, USA

Breddekreds: 45-41-53N, længdekreds: 092-57-11W, højde: 281 m

Aktuelle vejr

Denne rapport blev lavet for 27 minutter siden, kl. 18:56 UTC
Vind 5 kt fra sydsydøst
Temperatur 5°C
Fugtighed 52%
Tryk 1013 hPa
Sigt: 16.1 km
skyfri

METAR: KROS 221856Z AUTO 16005KT 10SM CLR 05/M04 A2991 RMK AO2 T00451040

Tid: 13:23 (19:23 UTC)


TAF: fraværende

Vejrobservationer og prognoser fra mere end 4000 lufthavne (METAR og TAF).

De gule og røde prikker repræsenterer de meteorologiske stationer.

Flyt musen over at se navnet på stationen.

Så klik over at se vejr observationer og prognoser.

At skifte det kort: Klik på de grønne knapper med et sort kors for at zoome ind; på den grønne knap med en bindestreg for at zoome ud; eller på de grønne pile for tilstødende kort.


METAR-TAF: